Time,TemperatureF,DewpointF,PressureIn,WindDirection,WindDirectionDegrees,WindSpeedMPH,WindSpeedGustMPH,Humidity,HourlyPrecipIn,Conditions,Clouds,dailyrainin,SolarRadiationWatts/m^2,SoftwareType,DateUTC
2013-04-17 00:02:00,46.0,42.0,-100.00,ENE,62,1.0,3.0,85,-99.99,,,0.00,0.000000,,2013-04-17 07:02:00,
2013-04-17 00:12:00,46.0,42.0,-100.00,ENE,62,1.0,3.0,85,-99.99,,,0.00,0.000000,,2013-04-17 07:12:00,
2013-04-17 00:42:00,48.0,41.0,-100.00,ENE,57,3.0,6.0,78,-99.99,,,0.00,0.000000,,2013-04-17 07:42:00,
2013-04-17 00:52:00,48.0,41.0,-100.00,ENE,57,3.0,6.0,78,-99.99,,,0.00,0.000000,,2013-04-17 07:52:00,
2013-04-17 01:02:00,48.0,41.0,-100.00,ENE,57,3.0,6.0,78,-99.99,,,0.00,0.000000,,2013-04-17 08:02:00,
2013-04-17 01:12:00,48.0,41.0,-100.00,ENE,57,3.0,6.0,78,-99.99,,,0.00,0.000000,,2013-04-17 08:12:00,
2013-04-17 01:42:00,47.0,41.0,-100.00,ENE,64,2.0,4.0,77,-99.99,,,0.00,0.000000,,2013-04-17 08:42:00,
2013-04-17 01:52:00,47.0,41.0,-100.00,ENE,64,2.0,4.0,77,-99.99,,,0.00,0.000000,,2013-04-17 08:52:00,
2013-04-17 02:02:00,47.0,41.0,-100.00,ENE,64,2.0,4.0,77,-99.99,,,0.00,0.000000,,2013-04-17 09:02:00,
2013-04-17 02:12:00,47.0,41.0,-100.00,ENE,64,2.0,4.0,77,-99.99,,,0.00,0.000000,,2013-04-17 09:12:00,
2013-04-17 02:42:00,46.0,40.0,-100.00,North,353,1.0,2.0,79,-99.99,,,0.00,0.000000,,2013-04-17 09:42:00,
2013-04-17 02:52:00,46.0,40.0,-100.00,North,353,1.0,2.0,79,-99.99,,,0.00,0.000000,,2013-04-17 09:52:00,
2013-04-17 03:02:00,46.0,40.0,-100.00,North,353,1.0,2.0,79,-99.99,,,0.00,0.000000,,2013-04-17 10:02:00,
2013-04-17 03:12:00,46.0,40.0,-100.00,North,353,1.0,2.0,79,-99.99,,,0.00,0.000000,,2013-04-17 10:12:00,
2013-04-17 03:42:00,46.0,41.0,-100.00,ENE,64,1.0,2.0,81,-99.99,,,0.00,0.000000,,2013-04-17 10:42:00,
2013-04-17 03:52:00,46.0,41.0,-100.00,ENE,64,1.0,2.0,81,-99.99,,,0.00,0.000000,,2013-04-17 10:52:00,
2013-04-17 04:02:00,46.0,41.0,-100.00,ENE,64,1.0,2.0,81,-99.99,,,0.00,0.000000,,2013-04-17 11:02:00,
2013-04-17 04:11:00,46.0,41.0,-100.00,ENE,64,1.0,2.0,81,-99.99,,,0.00,0.000000,,2013-04-17 11:11:00,
2013-04-17 04:42:00,46.0,41.0,-100.00,ENE,69,0.0,1.0,81,-99.99,,,0.00,0.000000,,2013-04-17 11:42:00,
2013-04-17 04:52:00,46.0,41.0,-100.00,ENE,69,0.0,1.0,81,-99.99,,,0.00,0.000000,,2013-04-17 11:52:00,
2013-04-17 05:02:00,46.0,41.0,-100.00,ENE,69,0.0,1.0,81,-99.99,,,0.00,0.000000,,2013-04-17 12:02:00,
2013-04-17 05:12:00,46.0,41.0,-100.00,ENE,69,0.0,1.0,81,-99.99,,,0.00,0.000000,,2013-04-17 12:12:00,
2013-04-17 05:42:00,45.0,42.0,-100.00,ENE,58,0.0,1.0,87,-99.99,,,-99.99,0.000000,,2013-04-17 12:42:00,
2013-04-17 05:52:00,45.0,42.0,-100.00,ENE,58,0.0,1.0,87,-99.99,,,-99.99,0.000000,,2013-04-17 12:52:00,
2013-04-17 06:02:00,45.0,42.0,-100.00,ENE,58,0.0,1.0,87,-99.99,,,-99.99,0.000000,,2013-04-17 13:02:00,
2013-04-17 06:12:00,45.0,42.0,-100.00,ENE,58,0.0,1.0,87,-99.99,,,-99.99,0.000000,,2013-04-17 13:12:00,
2013-04-17 06:42:00,45.0,42.0,-100.00,North,349,1.0,2.0,88,-99.99,,,0.00,0.000000,,2013-04-17 13:42:00,
2013-04-17 06:52:00,45.0,42.0,-100.00,North,349,1.0,2.0,88,-99.99,,,0.00,0.000000,,2013-04-17 13:52:00,
2013-04-17 07:02:00,45.0,42.0,-100.00,North,349,1.0,2.0,88,-99.99,,,0.00,0.000000,,2013-04-17 14:02:00,
2013-04-17 07:12:00,45.0,42.0,-100.00,North,349,1.0,2.0,88,-99.99,,,0.00,0.000000,,2013-04-17 14:12:00,
2013-04-17 07:42:00,46.0,42.0,-100.00,ENE,60,2.0,4.0,86,-99.99,,,0.00,14.410000,,2013-04-17 14:42:00,
2013-04-17 07:52:00,46.0,42.0,-100.00,ENE,60,2.0,4.0,86,-99.99,,,0.00,14.410000,,2013-04-17 14:52:00,
2013-04-17 08:02:00,46.0,42.0,-100.00,ENE,60,2.0,4.0,86,-99.99,,,0.00,14.410000,,2013-04-17 15:02:00,
2013-04-17 08:12:00,46.0,42.0,-100.00,ENE,60,2.0,4.0,86,-99.99,,,0.00,14.410000,,2013-04-17 15:12:00,
2013-04-17 08:42:00,46.0,41.0,-100.00,East,90,3.0,5.0,83,-99.99,,,0.00,62.990002,,2013-04-17 15:42:00,
2013-04-17 08:53:00,46.0,41.0,-100.00,East,90,3.0,5.0,83,-99.99,,,0.00,62.990002,,2013-04-17 15:53:00,
2013-04-17 09:03:00,46.0,41.0,-100.00,East,90,3.0,5.0,83,-99.99,,,0.00,62.990002,,2013-04-17 16:03:00,
2013-04-17 09:12:00,46.0,41.0,-100.00,East,90,3.0,5.0,83,-99.99,,,0.00,62.990002,,2013-04-17 16:12:00,
2013-04-17 09:42:00,48.0,41.0,-100.00,East,96,4.0,7.0,75,-99.99,,,0.00,221.979996,,2013-04-17 16:42:00,
2013-04-17 09:52:00,48.0,41.0,-100.00,East,96,4.0,7.0,75,-99.99,,,0.00,221.979996,,2013-04-17 16:52:00,
2013-04-17 10:02:00,48.0,41.0,-100.00,East,96,4.0,7.0,75,-99.99,,,0.00,221.979996,,2013-04-17 17:02:00,
2013-04-17 10:12:00,48.0,41.0,-100.00,East,96,4.0,7.0,75,-99.99,,,0.00,221.979996,,2013-04-17 17:12:00,
2013-04-17 10:42:00,51.0,40.0,-100.00,NE,55,4.0,9.0,67,-99.99,,,0.00,356.679993,,2013-04-17 17:42:00,
2013-04-17 10:52:00,51.0,40.0,-100.00,NE,55,4.0,9.0,67,-99.99,,,0.00,356.679993,,2013-04-17 17:52:00,
2013-04-17 11:02:00,51.0,40.0,-100.00,NE,55,4.0,9.0,67,-99.99,,,0.00,356.679993,,2013-04-17 18:02:00,
2013-04-17 11:12:00,51.0,40.0,-100.00,NE,55,4.0,9.0,67,-99.99,,,0.00,356.679993,,2013-04-17 18:12:00,
2013-04-17 11:42:00,53.0,42.0,-100.00,NNE,27,5.0,11.0,64,-99.99,,,0.00,587.719971,,2013-04-17 18:42:00,
2013-04-17 11:52:00,53.0,42.0,-100.00,NNE,27,5.0,11.0,64,-99.99,,,0.00,587.719971,,2013-04-17 18:52:00,
2013-04-17 12:02:00,53.0,42.0,-100.00,NNE,27,5.0,11.0,64,-99.99,,,0.00,587.719971,,2013-04-17 19:02:00,
2013-04-17 12:12:00,53.0,42.0,-100.00,NNE,27,5.0,11.0,64,-99.99,,,0.00,587.719971,,2013-04-17 19:12:00,
2013-04-17 12:42:00,54.0,43.0,-100.00,NNW,345,8.0,14.0,67,-99.99,,,0.00,875.140015,,2013-04-17 19:42:00,
2013-04-17 12:52:00,54.0,43.0,-100.00,NNW,345,8.0,14.0,67,-99.99,,,0.00,875.140015,,2013-04-17 19:52:00,
2013-04-17 13:02:00,54.0,43.0,-100.00,NNW,345,8.0,14.0,67,-99.99,,,0.00,875.140015,,2013-04-17 20:02:00,
2013-04-17 13:12:00,54.0,43.0,-100.00,NNW,345,8.0,14.0,67,-99.99,,,0.00,875.140015,,2013-04-17 20:12:00,
2013-04-17 13:42:00,53.0,44.0,-100.00,NNW,332,8.0,16.0,71,-99.99,,,0.00,889.080017,,2013-04-17 20:42:00,
2013-04-17 13:52:00,53.0,44.0,-100.00,NNW,332,8.0,16.0,71,-99.99,,,0.00,889.080017,,2013-04-17 20:52:00,
2013-04-17 14:02:00,53.0,44.0,-100.00,NNW,332,8.0,16.0,71,-99.99,,,0.00,889.080017,,2013-04-17 21:02:00,
2013-04-17 14:12:00,53.0,44.0,-100.00,NNW,332,8.0,16.0,71,-99.99,,,0.00,889.080017,,2013-04-17 21:12:00,
2013-04-17 14:42:00,53.0,45.0,-100.00,NNW,344,9.0,18.0,74,-99.99,,,0.00,864.679993,,2013-04-17 21:42:00,
2013-04-17 14:53:00,53.0,45.0,-100.00,NNW,344,9.0,18.0,74,-99.99,,,0.00,864.679993,,2013-04-17 21:53:00,
2013-04-17 15:02:00,53.0,45.0,-100.00,NNW,344,9.0,18.0,74,-99.99,,,0.00,864.679993,,2013-04-17 22:02:00,
2013-04-17 15:12:00,53.0,45.0,-100.00,NNW,344,9.0,18.0,74,-99.99,,,0.00,864.679993,,2013-04-17 22:12:00,
2013-04-17 15:42:00,53.0,44.0,-100.00,NNW,346,10.0,20.0,71,-99.99,,,0.00,789.830017,,2013-04-17 22:42:00,
2013-04-17 15:53:00,53.0,44.0,-100.00,NNW,346,10.0,20.0,71,-99.99,,,0.00,789.830017,,2013-04-17 22:53:00,
2013-04-17 16:02:00,53.0,44.0,-100.00,NNW,346,10.0,20.0,71,-99.99,,,0.00,789.830017,,2013-04-17 23:02:00,
2013-04-17 16:12:00,53.0,44.0,-100.00,NNW,346,10.0,20.0,71,-99.99,,,0.00,789.830017,,2013-04-17 23:12:00,
2013-04-17 16:42:00,53.0,44.0,-100.00,North,354,10.0,18.0,72,-99.99,,,0.00,669.429993,,2013-04-17 23:42:00,
2013-04-17 16:52:00,53.0,44.0,-100.00,North,354,10.0,18.0,72,-99.99,,,0.00,669.429993,,2013-04-17 23:52:00,
2013-04-17 17:02:00,53.0,44.0,-100.00,North,354,10.0,18.0,72,-99.99,,,0.00,669.429993,,2013-04-18 00:02:00,
2013-04-17 17:12:00,53.0,44.0,-100.00,North,354,10.0,18.0,72,-99.99,,,0.00,669.429993,,2013-04-18 00:12:00,
2013-04-17 18:42:00,51.0,43.0,-100.00,NNW,347,9.0,17.0,73,-99.99,,,0.00,313.100006,,2013-04-18 01:42:00,
2013-04-17 18:52:00,51.0,43.0,-100.00,NNW,347,9.0,17.0,73,-99.99,,,0.00,313.100006,,2013-04-18 01:52:00,
2013-04-17 19:02:00,51.0,43.0,-100.00,NNW,347,9.0,17.0,73,-99.99,,,0.00,313.100006,,2013-04-18 02:02:00,
2013-04-17 19:12:00,51.0,43.0,-100.00,NNW,347,9.0,17.0,73,-99.99,,,0.00,313.100006,,2013-04-18 02:12:00,
2013-04-17 20:02:00,50.0,43.0,-100.00,North,355,8.0,15.0,78,-99.99,,,0.00,34.520000,,2013-04-18 03:02:00,
2013-04-17 20:12:00,50.0,43.0,-100.00,North,355,8.0,15.0,78,-99.99,,,0.00,34.520000,,2013-04-18 03:12:00,
2013-04-17 20:43:00,49.0,43.0,-100.00,North,11,3.0,9.0,80,-99.99,,,0.00,1.630000,,2013-04-18 03:43:00,
2013-04-17 20:53:00,49.0,43.0,-100.00,North,11,3.0,9.0,80,-99.99,,,0.00,1.630000,,2013-04-18 03:53:00,
2013-04-17 21:03:00,49.0,43.0,-100.00,North,11,3.0,9.0,80,-99.99,,,0.00,1.630000,,2013-04-18 04:03:00,
2013-04-17 21:13:00,49.0,43.0,-100.00,North,11,3.0,9.0,80,-99.99,,,0.00,1.630000,,2013-04-18 04:13:00,
2013-04-17 21:43:00,49.0,43.0,-100.00,NE,42,3.0,6.0,80,-99.99,,,0.00,0.000000,,2013-04-18 04:43:00,
2013-04-17 21:53:00,49.0,43.0,-100.00,NE,42,3.0,6.0,80,-99.99,,,0.00,0.000000,,2013-04-18 04:53:00,
2013-04-17 22:02:00,49.0,43.0,-100.00,NE,42,3.0,6.0,80,-99.99,,,0.00,0.000000,,2013-04-18 05:02:00,
2013-04-17 22:12:00,49.0,43.0,-100.00,NE,42,3.0,6.0,80,-99.99,,,0.00,0.000000,,2013-04-18 05:12:00,
2013-04-17 22:42:00,49.0,43.0,-100.00,NE,45,1.0,4.0,81,-99.99,,,0.00,0.000000,,2013-04-18 05:42:00,
2013-04-17 22:52:00,49.0,43.0,-100.00,NE,45,1.0,4.0,81,-99.99,,,0.00,0.000000,,2013-04-18 05:52:00,
2013-04-17 23:02:00,49.0,43.0,-100.00,NE,45,1.0,4.0,81,-99.99,,,0.00,0.000000,,2013-04-18 06:02:00,
2013-04-17 23:12:00,49.0,43.0,-100.00,NE,45,1.0,4.0,81,-99.99,,,0.00,0.000000,,2013-04-18 06:12:00,
2013-04-17 23:42:00,48.0,44.0,-100.00,North,352,1.0,2.0,86,-99.99,,,0.00,0.000000,,2013-04-18 06:42:00,
2013-04-17 23:52:00,48.0,44.0,-100.00,North,352,1.0,2.0,86,-99.99,,,0.00,0.000000,,2013-04-18 06:52:00,